sensor_id;sensor_type;location;lat;lon;timestamp;pressure;altitude;pressure_sealevel;temperature;humidity
78121;BME280;67585;44.802;10.332;2023-05-29T00:02:19;100783.38;;;21.85;57.75
78121;BME280;67585;44.802;10.332;2023-05-29T00:04:45;100784.69;;;21.79;56.61
78121;BME280;67585;44.802;10.332;2023-05-29T00:07:10;100781.41;;;21.55;57.99
78121;BME280;67585;44.802;10.332;2023-05-29T00:09:36;100781.75;;;21.45;57.78
78121;BME280;67585;44.802;10.332;2023-05-29T00:12:01;100796.41;;;21.49;57.90
78121;BME280;67585;44.802;10.332;2023-05-29T00:14:27;100784.31;;;21.50;58.02
78121;BME280;67585;44.802;10.332;2023-05-29T00:16:53;100789.66;;;21.47;57.69
78121;BME280;67585;44.802;10.332;2023-05-29T00:19:18;100786.13;;;21.46;57.58
78121;BME280;67585;44.802;10.332;2023-05-29T00:21:45;100790.56;;;21.60;57.83
78121;BME280;67585;44.802;10.332;2023-05-29T00:24:14;100764.31;;;21.50;56.80
78121;BME280;67585;44.802;10.332;2023-05-29T00:26:39;100797.31;;;21.62;57.81
78121;BME280;67585;44.802;10.332;2023-05-29T00:29:04;100790.63;;;21.51;57.55
78121;BME280;67585;44.802;10.332;2023-05-29T00:31:30;100792.25;;;21.34;57.42
78121;BME280;67585;44.802;10.332;2023-05-29T00:33:55;100801.91;;;21.41;57.66
78121;BME280;67585;44.802;10.332;2023-05-29T00:36:21;100807.56;;;21.35;57.78
78121;BME280;67585;44.802;10.332;2023-05-29T00:38:47;100797.75;;;21.26;57.78
78121;BME280;67585;44.802;10.332;2023-05-29T00:41:15;100789.19;;;21.36;57.58
78121;BME280;67585;44.802;10.332;2023-05-29T00:43:41;100805.66;;;21.27;58.26
78121;BME280;67585;44.802;10.332;2023-05-29T00:46:08;100796.66;;;21.18;57.91
78121;BME280;67585;44.802;10.332;2023-05-29T00:48:33;100799.38;;;21.27;57.42
78121;BME280;67585;44.802;10.332;2023-05-29T00:50:59;100780.69;;;21.11;58.02
78121;BME280;67585;44.802;10.332;2023-05-29T00:53:25;100800.66;;;21.29;57.74
78121;BME280;67585;44.802;10.332;2023-05-29T00:55:51;100788.13;;;21.20;58.35
78121;BME280;67585;44.802;10.332;2023-05-29T00:58:17;100803.75;;;21.19;58.50
78121;BME280;67585;44.802;10.332;2023-05-29T01:00:43;100796.69;;;21.09;57.99
78121;BME280;67585;44.802;10.332;2023-05-29T01:03:09;100801.16;;;21.14;58.18
78121;BME280;67585;44.802;10.332;2023-05-29T01:05:37;100812.63;;;20.99;58.63
78121;BME280;67585;44.802;10.332;2023-05-29T01:08:03;100793.50;;;20.73;58.59
78121;BME280;67585;44.802;10.332;2023-05-29T01:10:29;100792.03;;;20.75;59.19
78121;BME280;67585;44.802;10.332;2023-05-29T01:13:34;100794.00;;;20.66;59.67
78121;BME280;67585;44.802;10.332;2023-05-29T01:19:03;100800.75;;;20.60;59.97
78121;BME280;67585;44.802;10.332;2023-05-29T01:24:49;100798.03;;;20.68;58.72
78121;BME280;67585;44.802;10.332;2023-05-29T01:27:21;100800.59;;;20.56;59.66
78121;BME280;67585;44.802;10.332;2023-05-29T01:29:51;100794.59;;;20.54;59.69
78121;BME280;67585;44.802;10.332;2023-05-29T01:32:18;100780.13;;;20.54;59.93
78121;BME280;67585;44.802;10.332;2023-05-29T01:34:44;100791.72;;;20.68;58.71
78121;BME280;67585;44.802;10.332;2023-05-29T01:37:10;100783.84;;;20.58;59.21
78121;BME280;67585;44.802;10.332;2023-05-29T01:39:35;100772.88;;;20.58;59.67
78121;BME280;67585;44.802;10.332;2023-05-29T01:42:01;100778.50;;;20.70;59.00
78121;BME280;67585;44.802;10.332;2023-05-29T01:44:28;100774.47;;;20.50;59.90
78121;BME280;67585;44.802;10.332;2023-05-29T01:46:54;100782.72;;;20.59;59.15
78121;BME280;67585;44.802;10.332;2023-05-29T01:49:20;100783.84;;;20.58;59.34
78121;BME280;67585;44.802;10.332;2023-05-29T01:51:46;100795.66;;;20.10;60.24
78121;BME280;67585;44.802;10.332;2023-05-29T01:54:11;100789.72;;;20.08;60.96
78121;BME280;67585;44.802;10.332;2023-05-29T01:56:37;100785.22;;;20.29;59.78
78121;BME280;67585;44.802;10.332;2023-05-29T01:59:03;100793.41;;;20.12;60.68
78121;BME280;67585;44.802;10.332;2023-05-29T02:01:29;100793.59;;;20.15;60.62
78121;BME280;67585;44.802;10.332;2023-05-29T02:03:55;100788.28;;;20.19;60.38
78121;BME280;67585;44.802;10.332;2023-05-29T02:06:21;100790.06;;;20.41;60.26
78121;BME280;67585;44.802;10.332;2023-05-29T02:08:46;100780.25;;;20.05;60.59
78121;BME280;67585;44.802;10.332;2023-05-29T02:11:12;100779.16;;;20.32;60.36
78121;BME280;67585;44.802;10.332;2023-05-29T02:13:38;100787.53;;;20.44;60.48
78121;BME280;67585;44.802;10.332;2023-05-29T02:16:03;100779.75;;;20.29;59.87
78121;BME280;67585;44.802;10.332;2023-05-29T02:18:29;100759.66;;;20.25;59.85
78121;BME280;67585;44.802;10.332;2023-05-29T02:20:54;100778.34;;;20.40;60.15
78121;BME280;67585;44.802;10.332;2023-05-29T02:23:20;100766.25;;;20.24;60.21
78121;BME280;67585;44.802;10.332;2023-05-29T02:25:46;100760.13;;;20.18;60.28
78121;BME280;67585;44.802;10.332;2023-05-29T02:28:11;100764.00;;;20.35;59.65
78121;BME280;67585;44.802;10.332;2023-05-29T02:30:37;100781.09;;;20.49;59.35
78121;BME280;67585;44.802;10.332;2023-05-29T02:33:02;100772.38;;;20.38;60.55
78121;BME280;67585;44.802;10.332;2023-05-29T02:35:28;100773.50;;;20.28;60.43
78121;BME280;67585;44.802;10.332;2023-05-29T02:37:53;100781.53;;;20.34;60.17
78121;BME280;67585;44.802;10.332;2023-05-29T02:40:19;100769.00;;;20.15;60.66
78121;BME280;67585;44.802;10.332;2023-05-29T02:42:45;100780.41;;;20.17;60.93
78121;BME280;67585;44.802;10.332;2023-05-29T02:45:11;100779.91;;;20.06;61.24
78121;BME280;67585;44.802;10.332;2023-05-29T02:47:37;100772.47;;;19.81;61.61
78121;BME280;67585;44.802;10.332;2023-05-29T02:50:03;100788.72;;;19.86;61.74
78121;BME280;67585;44.802;10.332;2023-05-29T02:52:28;100782.06;;;19.70;62.51
78121;BME280;67585;44.802;10.332;2023-05-29T02:54:55;100787.88;;;19.46;64.08
78121;BME280;67585;44.802;10.332;2023-05-29T02:57:22;100787.59;;;19.56;63.10
78121;BME280;67585;44.802;10.332;2023-05-29T02:59:47;100780.47;;;19.46;63.69
78121;BME280;67585;44.802;10.332;2023-05-29T03:02:12;100788.53;;;19.51;63.41
78121;BME280;67585;44.802;10.332;2023-05-29T03:04:38;100762.66;;;19.49;62.42
78121;BME280;67585;44.802;10.332;2023-05-29T03:07:03;100771.34;;;19.51;62.20
78121;BME280;67585;44.802;10.332;2023-05-29T03:09:29;100774.16;;;19.37;62.53
78121;BME280;67585;44.802;10.332;2023-05-29T03:11:54;100772.06;;;19.34;62.08
78121;BME280;67585;44.802;10.332;2023-05-29T03:14:19;100779.47;;;19.33;62.57
78121;BME280;67585;44.802;10.332;2023-05-29T03:16:46;100779.72;;;19.54;61.71
78121;BME280;67585;44.802;10.332;2023-05-29T03:19:12;100779.41;;;19.56;61.38
78121;BME280;67585;44.802;10.332;2023-05-29T03:21:37;100801.41;;;19.51;61.44
78121;BME280;67585;44.802;10.332;2023-05-29T03:24:03;100784.50;;;19.40;61.67
78121;BME280;67585;44.802;10.332;2023-05-29T03:26:29;100794.34;;;19.58;61.43
78121;BME280;67585;44.802;10.332;2023-05-29T03:28:54;100796.34;;;19.35;62.02
78121;BME280;67585;44.802;10.332;2023-05-29T03:31:20;100791.81;;;19.31;61.64
78121;BME280;67585;44.802;10.332;2023-05-29T03:33:46;100780.53;;;19.24;61.89
78121;BME280;67585;44.802;10.332;2023-05-29T03:36:12;100792.53;;;19.45;62.00
78121;BME280;67585;44.802;10.332;2023-05-29T03:38:37;100785.44;;;19.35;61.41
78121;BME280;67585;44.802;10.332;2023-05-29T03:41:03;100793.13;;;19.33;61.49
78121;BME280;67585;44.802;10.332;2023-05-29T03:43:28;100787.59;;;18.93;63.02
78121;BME280;67585;44.802;10.332;2023-05-29T03:45:53;100792.00;;;19.03;62.90
78121;BME280;67585;44.802;10.332;2023-05-29T03:48:19;100793.91;;;19.25;62.43
78121;BME280;67585;44.802;10.332;2023-05-29T03:50:46;100782.03;;;19.30;62.08
78121;BME280;67585;44.802;10.332;2023-05-29T03:53:11;100780.25;;;19.25;61.91
78121;BME280;67585;44.802;10.332;2023-05-29T03:55:37;100774.84;;;19.11;62.97
78121;BME280;67585;44.802;10.332;2023-05-29T03:58:02;100788.28;;;19.30;62.56
78121;BME280;67585;44.802;10.332;2023-05-29T04:00:28;100800.75;;;19.45;62.09
78121;BME280;67585;44.802;10.332;2023-05-29T04:02:55;100789.09;;;19.31;62.18
78121;BME280;67585;44.802;10.332;2023-05-29T04:05:20;100801.09;;;19.52;61.46
78121;BME280;67585;44.802;10.332;2023-05-29T04:07:45;100812.44;;;19.68;61.77
78121;BME280;67585;44.802;10.332;2023-05-29T04:10:11;100817.41;;;19.66;61.88
78121;BME280;67585;44.802;10.332;2023-05-29T04:12:36;100822.13;;;19.74;61.56
78121;BME280;67585;44.802;10.332;2023-05-29T04:15:02;100797.91;;;19.59;60.69
78121;BME280;67585;44.802;10.332;2023-05-29T04:17:28;100834.50;;;19.72;60.97
78121;BME280;67585;44.802;10.332;2023-05-29T04:19:53;100825.72;;;19.61;61.40
78121;BME280;67585;44.802;10.332;2023-05-29T04:22:19;100831.09;;;19.43;61.72
78121;BME280;67585;44.802;10.332;2023-05-29T04:24:46;100838.84;;;19.50;62.14
78121;BME280;67585;44.802;10.332;2023-05-29T04:27:12;100865.25;;;19.86;61.69
78121;BME280;67585;44.802;10.332;2023-05-29T04:29:41;100847.28;;;19.62;61.68
78121;BME280;67585;44.802;10.332;2023-05-29T04:32:10;100867.53;;;19.93;61.17
78121;BME280;67585;44.802;10.332;2023-05-29T04:34:37;100855.25;;;19.50;62.79
78121;BME280;67585;44.802;10.332;2023-05-29T04:37:04;100848.88;;;19.32;63.48
78121;BME280;67585;44.802;10.332;2023-05-29T04:39:30;100857.75;;;19.38;63.45
78121;BME280;67585;44.802;10.332;2023-05-29T04:41:55;100868.78;;;19.55;62.92
78121;BME280;67585;44.802;10.332;2023-05-29T04:44:24;100846.06;;;19.46;63.11
78121;BME280;67585;44.802;10.332;2023-05-29T04:46:50;100869.94;;;19.63;63.05
78121;BME280;67585;44.802;10.332;2023-05-29T04:49:17;100875.69;;;19.53;62.38
78121;BME280;67585;44.802;10.332;2023-05-29T04:51:42;100877.28;;;19.76;62.49
78121;BME280;67585;44.802;10.332;2023-05-29T04:54:09;100873.69;;;20.07;61.95
78121;BME280;67585;44.802;10.332;2023-05-29T04:56:35;100853.94;;;20.10;60.97
78121;BME280;67585;44.802;10.332;2023-05-29T04:59:00;100845.72;;;20.10;61.53
78121;BME280;67585;44.802;10.332;2023-05-29T05:01:25;100872.09;;;20.06;61.02
78121;BME280;67585;44.802;10.332;2023-05-29T05:03:51;100877.72;;;20.10;63.10
78121;BME280;67585;44.802;10.332;2023-05-29T05:06:21;100861.00;;;20.11;62.12
78121;BME280;67585;44.802;10.332;2023-05-29T05:08:47;100884.47;;;20.12;61.67
78121;BME280;67585;44.802;10.332;2023-05-29T05:11:13;100864.69;;;20.06;60.42
78121;BME280;67585;44.802;10.332;2023-05-29T05:13:39;100899.69;;;20.27;60.32
78121;BME280;67585;44.802;10.332;2023-05-29T05:16:04;100888.56;;;19.83;60.86
78121;BME280;67585;44.802;10.332;2023-05-29T05:18:29;100879.50;;;20.14;61.28
78121;BME280;67585;44.802;10.332;2023-05-29T05:20:55;100858.09;;;20.08;60.96
78121;BME280;67585;44.802;10.332;2023-05-29T05:23:20;100900.81;;;20.35;60.82
78121;BME280;67585;44.802;10.332;2023-05-29T05:25:46;100887.22;;;20.12;60.08
78121;BME280;67585;44.802;10.332;2023-05-29T05:28:11;100881.13;;;20.15;60.89
78121;BME280;67585;44.802;10.332;2023-05-29T05:30:38;100900.88;;;20.12;60.62
78121;BME280;67585;44.802;10.332;2023-05-29T05:33:03;100906.19;;;20.09;60.60
78121;BME280;67585;44.802;10.332;2023-05-29T05:35:29;100889.66;;;19.74;61.82
78121;BME280;67585;44.802;10.332;2023-05-29T05:37:54;100896.91;;;19.78;61.39
78121;BME280;67585;44.802;10.332;2023-05-29T05:40:23;100903.63;;;19.72;62.58
78121;BME280;67585;44.802;10.332;2023-05-29T05:42:48;100897.84;;;20.05;62.45
78121;BME280;67585;44.802;10.332;2023-05-29T05:45:14;100892.47;;;19.91;61.75
78121;BME280;67585;44.802;10.332;2023-05-29T05:47:56;100910.31;;;19.66;63.30
78121;BME280;67585;44.802;10.332;2023-05-29T05:50:22;100897.00;;;19.96;63.53
78121;BME280;67585;44.802;10.332;2023-05-29T05:52:47;100916.09;;;20.27;62.63
78121;BME280;67585;44.802;10.332;2023-05-29T05:58:12;100793.19;;;19.51;62.86
78121;BME280;67585;44.802;10.332;2023-05-29T06:00:38;100818.94;;;19.58;63.15
78121;BME280;67585;44.802;10.332;2023-05-29T06:03:04;100891.47;;;20.27;63.21
78121;BME280;67585;44.802;10.332;2023-05-29T06:05:30;100889.72;;;20.48;62.18
78121;BME280;67585;44.802;10.332;2023-05-29T06:07:55;100885.69;;;20.37;62.56
78121;BME280;67585;44.802;10.332;2023-05-29T06:10:20;100911.38;;;20.59;61.84
78121;BME280;67585;44.802;10.332;2023-05-29T06:12:46;100912.13;;;20.50;62.62
78121;BME280;67585;44.802;10.332;2023-05-29T06:15:11;100886.13;;;20.22;63.61
78121;BME280;67585;44.802;10.332;2023-05-29T06:17:37;100907.84;;;20.18;63.68
78121;BME280;67585;44.802;10.332;2023-05-29T06:20:03;100909.09;;;20.03;64.49
78121;BME280;67585;44.802;10.332;2023-05-29T06:22:36;100914.81;;;20.33;63.65
78121;BME280;67585;44.802;10.332;2023-05-29T06:25:01;100915.94;;;20.32;63.46
78121;BME280;67585;44.802;10.332;2023-05-29T06:27:27;100897.53;;;20.15;64.37
78121;BME280;67585;44.802;10.332;2023-05-29T06:29:52;100896.78;;;20.32;64.15
78121;BME280;67585;44.802;10.332;2023-05-29T06:32:17;100906.63;;;20.42;63.32
78121;BME280;67585;44.802;10.332;2023-05-29T06:34:43;100923.78;;;20.56;63.71
78121;BME280;67585;44.802;10.332;2023-05-29T06:37:08;100894.41;;;20.48;63.28
78121;BME280;67585;44.802;10.332;2023-05-29T06:39:34;100922.50;;;20.80;62.44
78121;BME280;67585;44.802;10.332;2023-05-29T06:41:59;100910.88;;;20.57;63.70
78121;BME280;67585;44.802;10.332;2023-05-29T06:44:26;100830.47;;;20.26;63.51
78121;BME280;67585;44.802;10.332;2023-05-29T06:46:52;100929.63;;;20.98;63.49
78121;BME280;67585;44.802;10.332;2023-05-29T06:49:17;100928.97;;;21.36;62.92
78121;BME280;67585;44.802;10.332;2023-05-29T06:51:44;100931.09;;;21.39;61.70
78121;BME280;67585;44.802;10.332;2023-05-29T06:54:09;100935.06;;;21.33;62.52
78121;BME280;67585;44.802;10.332;2023-05-29T06:56:35;100933.00;;;21.39;61.73
78121;BME280;67585;44.802;10.332;2023-05-29T06:59:00;100926.06;;;21.32;61.93
78121;BME280;67585;44.802;10.332;2023-05-29T07:01:26;100939.09;;;21.35;62.91
78121;BME280;67585;44.802;10.332;2023-05-29T07:03:52;100931.38;;;21.55;61.26
78121;BME280;67585;44.802;10.332;2023-05-29T07:06:17;100908.94;;;21.53;60.87
78121;BME280;67585;44.802;10.332;2023-05-29T07:08:43;100932.91;;;21.91;60.29
78121;BME280;67585;44.802;10.332;2023-05-29T07:11:08;100920.13;;;21.95;60.21
78121;BME280;67585;44.802;10.332;2023-05-29T07:13:34;100931.06;;;22.04;59.69
78121;BME280;67585;44.802;10.332;2023-05-29T07:16:00;100936.22;;;22.05;60.46
78121;BME280;67585;44.802;10.332;2023-05-29T07:18:26;100924.72;;;21.73;61.69
78121;BME280;67585;44.802;10.332;2023-05-29T07:20:51;100926.44;;;22.34;59.08
78121;BME280;67585;44.802;10.332;2023-05-29T07:23:16;100910.88;;;22.47;58.93
78121;BME280;67585;44.802;10.332;2023-05-29T07:25:42;100896.19;;;22.43;58.41
78121;BME280;67585;44.802;10.332;2023-05-29T07:28:07;100876.59;;;22.23;58.68
78121;BME280;67585;44.802;10.332;2023-05-29T07:30:33;100930.75;;;22.44;58.99
78121;BME280;67585;44.802;10.332;2023-05-29T07:32:58;100931.16;;;23.05;57.67
78121;BME280;67585;44.802;10.332;2023-05-29T07:35:23;100930.38;;;23.04;57.19
78121;BME280;67585;44.802;10.332;2023-05-29T07:37:49;100926.72;;;23.34;56.31
78121;BME280;67585;44.802;10.332;2023-05-29T07:40:16;100915.22;;;23.53;54.86
78121;BME280;67585;44.802;10.332;2023-05-29T07:42:42;100915.31;;;23.77;54.52
78121;BME280;67585;44.802;10.332;2023-05-29T07:45:07;100915.44;;;23.93;54.56
78121;BME280;67585;44.802;10.332;2023-05-29T07:47:33;100927.59;;;23.92;54.18
78121;BME280;67585;44.802;10.332;2023-05-29T07:49:58;100929.19;;;23.93;53.76
78121;BME280;67585;44.802;10.332;2023-05-29T07:52:23;100927.13;;;23.90;53.91
78121;BME280;67585;44.802;10.332;2023-05-29T07:54:50;100932.66;;;24.15;53.10
78121;BME280;67585;44.802;10.332;2023-05-29T07:57:15;100935.06;;;24.16;52.71
78121;BME280;67585;44.802;10.332;2023-05-29T07:59:41;100925.88;;;24.37;52.21
78121;BME280;67585;44.802;10.332;2023-05-29T08:02:07;100927.84;;;24.24;51.46
78121;BME280;67585;44.802;10.332;2023-05-29T08:04:33;100910.28;;;24.28;50.46
78121;BME280;67585;44.802;10.332;2023-05-29T08:07:02;100910.06;;;24.34;50.85
78121;BME280;67585;44.802;10.332;2023-05-29T08:09:28;100922.88;;;23.93;51.28
78121;BME280;67585;44.802;10.332;2023-05-29T08:11:54;100910.94;;;23.76;51.00
78121;BME280;67585;44.802;10.332;2023-05-29T08:14:19;100916.59;;;24.29;49.32
78121;BME280;67585;44.802;10.332;2023-05-29T08:16:45;100916.72;;;24.33;50.57
78121;BME280;67585;44.802;10.332;2023-05-29T08:19:10;100905.25;;;24.55;49.39
78121;BME280;67585;44.802;10.332;2023-05-29T08:21:35;100927.06;;;24.48;50.62
78121;BME280;67585;44.802;10.332;2023-05-29T08:24:03;100926.94;;;24.57;49.44
78121;BME280;67585;44.802;10.332;2023-05-29T08:26:31;100931.25;;;24.82;48.25
78121;BME280;67585;44.802;10.332;2023-05-29T08:28:57;100921.41;;;24.69;48.89
78121;BME280;67585;44.802;10.332;2023-05-29T08:31:22;100925.66;;;25.07;47.60
78121;BME280;67585;44.802;10.332;2023-05-29T08:33:51;100919.75;;;24.80;47.55
78121;BME280;67585;44.802;10.332;2023-05-29T08:36:16;100898.72;;;24.88;47.78
78121;BME280;67585;44.802;10.332;2023-05-29T08:38:43;100926.44;;;25.07;46.22
78121;BME280;67585;44.802;10.332;2023-05-29T08:41:13;100934.69;;;24.91;46.62
78121;BME280;67585;44.802;10.332;2023-05-29T08:43:42;100932.13;;;24.99;46.73
78121;BME280;67585;44.802;10.332;2023-05-29T08:46:09;100905.34;;;24.99;46.81
78121;BME280;67585;44.802;10.332;2023-05-29T08:48:34;100925.69;;;25.35;45.58
78121;BME280;67585;44.802;10.332;2023-05-29T08:51:02;100930.19;;;25.55;46.03
78121;BME280;67585;44.802;10.332;2023-05-29T08:53:27;100915.06;;;25.49;45.04
78121;BME280;67585;44.802;10.332;2023-05-29T08:55:53;100915.59;;;25.39;46.13
78121;BME280;67585;44.802;10.332;2023-05-29T08:58:21;100903.59;;;25.63;44.41
78121;BME280;67585;44.802;10.332;2023-05-29T09:00:48;100928.91;;;25.81;44.55
78121;BME280;67585;44.802;10.332;2023-05-29T09:03:14;100929.91;;;26.05;44.00
78121;BME280;67585;44.802;10.332;2023-05-29T09:05:40;100924.47;;;26.08;44.21
78121;BME280;67585;44.802;10.332;2023-05-29T09:08:07;100932.34;;;25.62;45.30
78121;BME280;67585;44.802;10.332;2023-05-29T09:10:33;100927.94;;;26.05;44.38
78121;BME280;67585;44.802;10.332;2023-05-29T09:12:59;100916.16;;;26.40;43.33
78121;BME280;67585;44.802;10.332;2023-05-29T09:15:24;100918.25;;;26.62;43.07
78121;BME280;67585;44.802;10.332;2023-05-29T09:17:56;100930.38;;;26.93;42.49
78121;BME280;67585;44.802;10.332;2023-05-29T09:20:26;100914.22;;;26.76;42.34
78121;BME280;67585;44.802;10.332;2023-05-29T09:22:59;100934.00;;;26.78;42.11
78121;BME280;67585;44.802;10.332;2023-05-29T09:25:27;100937.50;;;26.94;42.69
78121;BME280;67585;44.802;10.332;2023-05-29T09:30:40;100915.94;;;27.19;40.19
78121;BME280;67585;44.802;10.332;2023-05-29T09:33:07;100940.19;;;27.26;41.28
78121;BME280;67585;44.802;10.332;2023-05-29T09:35:41;100942.75;;;27.58;39.51
78121;BME280;67585;44.802;10.332;2023-05-29T09:38:08;100921.44;;;27.39;40.74
78121;BME280;67585;44.802;10.332;2023-05-29T09:40:39;100941.88;;;27.54;40.07
78121;BME280;67585;44.802;10.332;2023-05-29T09:43:11;100941.94;;;27.57;40.11
78121;BME280;67585;44.802;10.332;2023-05-29T09:45:38;100914.81;;;27.43;40.46
78121;BME280;67585;44.802;10.332;2023-05-29T09:48:10;100940.59;;;27.70;41.09
78121;BME280;67585;44.802;10.332;2023-05-29T09:50:37;100927.94;;;28.16;38.28
78121;BME280;67585;44.802;10.332;2023-05-29T09:53:02;100937.72;;;27.63;40.62
78121;BME280;67585;44.802;10.332;2023-05-29T09:55:29;100940.41;;;28.02;39.21
78121;BME280;67585;44.802;10.332;2023-05-29T09:57:57;100923.19;;;27.89;39.01
78121;BME280;67585;44.802;10.332;2023-05-29T10:00:23;100933.59;;;27.77;39.49
78121;BME280;67585;44.802;10.332;2023-05-29T10:02:49;100938.19;;;27.88;38.91
78121;BME280;67585;44.802;10.332;2023-05-29T10:05:15;100923.69;;;28.22;37.83
78121;BME280;67585;44.802;10.332;2023-05-29T10:07:43;100939.28;;;28.07;38.46
78121;BME280;67585;44.802;10.332;2023-05-29T10:10:11;100918.94;;;27.76;38.33
78121;BME280;67585;44.802;10.332;2023-05-29T10:12:44;100925.78;;;28.28;38.22
78121;BME280;67585;44.802;10.332;2023-05-29T10:15:14;100927.66;;;28.21;37.80
78121;BME280;67585;44.802;10.332;2023-05-29T10:17:57;100926.66;;;27.86;37.60
78121;BME280;67585;44.802;10.332;2023-05-29T10:20:26;100910.66;;;27.76;38.38
78121;BME280;67585;44.802;10.332;2023-05-29T10:22:53;100925.56;;;27.91;38.32
78121;BME280;67585;44.802;10.332;2023-05-29T10:25:21;100905.53;;;27.55;39.03
78121;BME280;67585;44.802;10.332;2023-05-29T10:27:48;100925.38;;;28.03;38.07
78121;BME280;67585;44.802;10.332;2023-05-29T10:35:47;100914.41;;;28.37;35.84
78121;BME280;67585;44.802;10.332;2023-05-29T10:38:14;100910.06;;;28.36;35.39
78121;BME280;67585;44.802;10.332;2023-05-29T10:40:44;100900.16;;;27.85;36.95
78121;BME280;67585;44.802;10.332;2023-05-29T10:43:33;100900.97;;;28.62;35.04
78121;BME280;67585;44.802;10.332;2023-05-29T10:46:01;100902.47;;;28.86;34.59
78121;BME280;67585;44.802;10.332;2023-05-29T10:50:56;100875.94;;;28.59;35.49
78121;BME280;67585;44.802;10.332;2023-05-29T10:53:26;100911.03;;;29.08;35.55
78121;BME280;67585;44.802;10.332;2023-05-29T10:55:56;100894.06;;;28.79;36.52
78121;BME280;67585;44.802;10.332;2023-05-29T10:58:23;100903.34;;;28.64;36.28
78121;BME280;67585;44.802;10.332;2023-05-29T11:00:49;100897.06;;;28.13;37.65
78121;BME280;67585;44.802;10.332;2023-05-29T11:03:19;100900.19;;;28.65;36.83
78121;BME280;67585;44.802;10.332;2023-05-29T11:06:02;100901.53;;;28.48;35.14
78121;BME280;67585;44.802;10.332;2023-05-29T11:08:46;100896.38;;;29.07;34.91
78121;BME280;67585;44.802;10.332;2023-05-29T11:11:13;100896.72;;;28.72;35.06
78121;BME280;67585;44.802;10.332;2023-05-29T11:13:39;100847.28;;;27.71;36.98
78121;BME280;67585;44.802;10.332;2023-05-29T11:16:14;100882.81;;;28.42;36.33
78121;BME280;67585;44.802;10.332;2023-05-29T11:18:45;100878.66;;;28.02;36.41
78121;BME280;67585;44.802;10.332;2023-05-29T11:24:06;100868.59;;;28.17;36.38
78121;BME280;67585;44.802;10.332;2023-05-29T11:26:32;100882.88;;;28.72;35.19
78121;BME280;67585;44.802;10.332;2023-05-29T11:29:04;100874.06;;;29.00;34.52
78121;BME280;67585;44.802;10.332;2023-05-29T11:31:32;100883.47;;;28.58;35.05
78121;BME280;67585;44.802;10.332;2023-05-29T11:34:02;100873.56;;;28.30;35.87
78121;BME280;67585;44.802;10.332;2023-05-29T11:36:32;100820.75;;;28.46;34.99
78121;BME280;67585;44.802;10.332;2023-05-29T11:38:59;100879.88;;;28.88;34.94
78121;BME280;67585;44.802;10.332;2023-05-29T11:41:25;100861.59;;;29.17;33.94
78121;BME280;67585;44.802;10.332;2023-05-29T11:44:00;100865.75;;;29.00;35.54
78121;BME280;67585;44.802;10.332;2023-05-29T11:46:30;100856.84;;;28.50;35.85
78121;BME280;67585;44.802;10.332;2023-05-29T11:48:58;100869.75;;;29.03;35.81
78121;BME280;67585;44.802;10.332;2023-05-29T11:51:23;100846.91;;;29.13;34.57
78121;BME280;67585;44.802;10.332;2023-05-29T11:53:49;100867.19;;;28.57;35.08
78121;BME280;67585;44.802;10.332;2023-05-29T11:56:18;100869.63;;;27.59;37.52
78121;BME280;67585;44.802;10.332;2023-05-29T11:58:44;100864.38;;;28.00;36.66
78121;BME280;67585;44.802;10.332;2023-05-29T12:01:10;100851.06;;;28.62;35.24
78121;BME280;67585;44.802;10.332;2023-05-29T12:03:42;100858.22;;;29.01;34.34
78121;BME280;67585;44.802;10.332;2023-05-29T12:06:11;100827.88;;;28.77;34.56
78121;BME280;67585;44.802;10.332;2023-05-29T12:08:39;100831.31;;;28.67;34.57
78121;BME280;67585;44.802;10.332;2023-05-29T12:11:05;100847.81;;;28.90;34.39
78121;BME280;67585;44.802;10.332;2023-05-29T12:13:31;100831.84;;;27.93;36.62
78121;BME280;67585;44.802;10.332;2023-05-29T12:15:57;100824.16;;;28.36;35.21
78121;BME280;67585;44.802;10.332;2023-05-29T12:18:25;100834.78;;;28.04;36.39
78121;BME280;67585;44.802;10.332;2023-05-29T12:20:56;100831.16;;;28.90;35.25
78121;BME280;67585;44.802;10.332;2023-05-29T12:23:22;100829.19;;;28.91;35.17
78121;BME280;67585;44.802;10.332;2023-05-29T12:25:47;100830.53;;;28.67;35.58
78121;BME280;67585;44.802;10.332;2023-05-29T12:28:17;100831.19;;;28.30;36.35
78121;BME280;67585;44.802;10.332;2023-05-29T12:30:44;100821.25;;;27.76;37.25
78121;BME280;67585;44.802;10.332;2023-05-29T12:33:31;100814.44;;;27.46;38.55
78121;BME280;67585;44.802;10.332;2023-05-29T12:36:07;100826.94;;;27.37;38.46
78121;BME280;67585;44.802;10.332;2023-05-29T12:38:51;100825.72;;;28.64;36.38
78121;BME280;67585;44.802;10.332;2023-05-29T12:41:27;100813.53;;;29.06;35.50
78121;BME280;67585;44.802;10.332;2023-05-29T12:43:57;100825.16;;;29.18;34.33
78121;BME280;67585;44.802;10.332;2023-05-29T12:46:24;100816.69;;;28.70;33.75
78121;BME280;67585;44.802;10.332;2023-05-29T12:48:49;100800.06;;;28.74;34.30
78121;BME280;67585;44.802;10.332;2023-05-29T12:51:18;100817.34;;;28.94;34.66
78121;BME280;67585;44.802;10.332;2023-05-29T12:53:47;100802.22;;;28.88;35.52
78121;BME280;67585;44.802;10.332;2023-05-29T12:56:12;100775.81;;;28.03;35.47
78121;BME280;67585;44.802;10.332;2023-05-29T12:58:38;100806.63;;;28.59;35.93
78121;BME280;67585;44.802;10.332;2023-05-29T13:01:03;100799.75;;;28.79;35.53
78121;BME280;67585;44.802;10.332;2023-05-29T13:03:29;100792.44;;;28.64;34.91